Time;durP1;ratioP1;P1;durP2;ratioP2;P2;SDS_P1;SDS_P2;PMS_P1;PMS_P2;Temp;Humidity;BMP_temperature;BMP_pressure;BME280_temperature;BME280_humidity;BME280_pressure;Samples;Min_cycle;Max_cycle;Signal;HPM_P1;HPM_P2
2022/09/01 00:01:49;;;;;;;6.45;2.05;;;;;;;;;;5070831;28;20111;-67
2022/09/01 00:04:16;;;;;;;2.85;1.95;;;;;;;;;;5070650;28;20031;-68
2022/09/01 00:06:41;;;;;;;4.30;2.08;;;;;;;;;;5070144;28;20020;-68
2022/09/01 00:09:08;;;;;;;6.07;2.05;;;;;;;;;;5070393;28;20024;-68
2022/09/01 00:11:33;;;;;;;4.22;2.40;;;;;;;;;;5070539;28;20401;-68
2022/09/01 00:14:00;;;;;;;2.83;2.10;;;;;;;;;;5070197;28;20070;-68
2022/09/01 00:16:26;;;;;;;7.68;2.08;;;;;;;;;;5070326;28;20028;-67
2022/09/01 00:18:52;;;;;;;8.27;2.58;;;;;;;;;;5070371;28;20028;-67
2022/09/01 00:21:19;;;;;;;5.35;2.10;;;;;;;;;;5070247;28;20461;-67
2022/09/01 00:23:45;;;;;;;7.78;2.67;;;;;;;;;;5070378;28;20024;-68
2022/09/01 00:26:10;;;;;;;3.95;2.78;;;;;;;;;;5070082;28;20020;-68
2022/09/01 00:28:36;;;;;;;2.85;2.20;;;;;;;;;;5069841;28;20534;-67
2022/09/01 00:31:02;;;;;;;5.95;2.70;;;;;;;;;;5069591;28;20062;-67
2022/09/01 00:33:27;;;;;;;5.80;2.70;;;;;;;;;;5070160;28;20493;-68
2022/09/01 00:35:53;;;;;;;6.95;3.05;;;;;;;;;;5070141;28;20017;-67
2022/09/01 00:38:18;;;;;;;4.50;2.88;;;;;;;;;;5070123;28;20430;-67
2022/09/01 00:40:43;;;;;;;3.67;2.70;;;;;;;;;;5070325;28;20520;-68
2022/09/01 00:43:13;;;;;;;14.93;2.83;;;;;;;;;;5070264;28;20035;-68
2022/09/01 00:45:40;;;;;;;3.20;2.28;;;;;;;;;;5070076;28;20262;-67
2022/09/01 00:48:06;;;;;;;3.75;2.22;;;;;;;;;;5069824;28;20025;-68
2022/09/01 00:50:31;;;;;;;2.95;2.10;;;;;;;;;;5070794;28;20020;-67
2022/09/01 00:52:56;;;;;;;6.32;2.80;;;;;;;;;;5073963;28;20017;-68
2022/09/01 00:55:27;;;;;;;3.40;2.20;;;;;;;;;;5073747;28;20031;-67
2022/09/01 00:57:53;;;;;;;2.97;2.00;;;;;;;;;;5073747;28;20028;-68
2022/09/01 01:00:20;;;;;;;4.40;2.50;;;;;;;;;;5073759;28;20044;-68
2022/09/01 01:02:46;;;;;;;3.20;2.08;;;;;;;;;;5073878;28;20047;-68
2022/09/01 01:05:13;;;;;;;6.38;2.20;;;;;;;;;;5073513;28;20032;-67
2022/09/01 01:07:41;;;;;;;3.50;1.95;;;;;;;;;;5073893;28;20408;-67
2022/09/01 01:10:07;;;;;;;8.00;1.80;;;;;;;;;;5073583;28;20020;-67
2022/09/01 01:12:36;;;;;;;2.80;2.13;;;;;;;;;;5073708;28;20016;-68
2022/09/01 01:15:03;;;;;;;3.45;2.25;;;;;;;;;;5073523;28;20530;-67
2022/09/01 01:17:28;;;;;;;3.65;2.22;;;;;;;;;;5073456;28;20029;-68
2022/09/01 01:23:08;;;;;;;8.13;2.60;;;;;;;;;;5073861;28;20750;-67
2022/09/01 01:25:37;;;;;;;3.67;2.33;;;;;;;;;;5073653;28;20028;-68
2022/09/01 01:28:07;;;;;;;4.35;2.00;;;;;;;;;;5073473;28;20017;-68
2022/09/01 01:30:35;;;;;;;5.05;1.70;;;;;;;;;;5073528;28;20024;-67
2022/09/01 01:33:01;;;;;;;10.95;1.90;;;;;;;;;;5073319;28;20170;-67
2022/09/01 01:35:26;;;;;;;3.90;2.22;;;;;;;;;;5072951;28;20096;-67
2022/09/01 01:37:52;;;;;;;6.38;2.47;;;;;;;;;;5073264;28;20086;-68
2022/09/01 01:40:19;;;;;;;8.95;1.95;;;;;;;;;;5072929;28;20524;-68
2022/09/01 01:42:45;;;;;;;5.15;1.73;;;;;;;;;;5073295;28;20020;-68
2022/09/01 01:45:15;;;;;;;4.95;2.35;;;;;;;;;;5072783;28;20024;-67
2022/09/01 01:47:41;;;;;;;3.28;2.10;;;;;;;;;;5072860;28;20429;-68
2022/09/01 01:50:08;;;;;;;3.53;2.33;;;;;;;;;;5072772;28;20040;-67
2022/09/01 01:52:33;;;;;;;7.80;2.38;;;;;;;;;;5072968;28;20388;-67
2022/09/01 01:54:58;;;;;;;2.50;1.73;;;;;;;;;;5072827;28;20112;-67
2022/09/01 01:57:24;;;;;;;3.23;2.20;;;;;;;;;;5072515;28;20028;-68
2022/09/01 01:59:49;;;;;;;9.27;2.10;;;;;;;;;;5072813;28;20255;-67
2022/09/01 02:02:14;;;;;;;2.10;1.63;;;;;;;;;;5071886;28;20023;-67
2022/09/01 02:04:41;;;;;;;2.33;1.40;;;;;;;;;;5072691;28;20385;-68
2022/09/01 02:07:12;;;;;;;4.38;1.80;;;;;;;;;;5072320;28;20039;-68
2022/09/01 02:09:39;;;;;;;4.30;1.85;;;;;;;;;;5072750;28;20020;-68
2022/09/01 02:12:06;;;;;;;3.88;2.20;;;;;;;;;;5072732;28;20025;-68
2022/09/01 02:14:31;;;;;;;2.60;1.90;;;;;;;;;;5072970;28;20021;-67
2022/09/01 02:16:57;;;;;;;11.52;1.70;;;;;;;;;;5072559;28;20091;-68
2022/09/01 02:19:22;;;;;;;2.67;1.83;;;;;;;;;;5072462;28;20028;-67
2022/09/01 02:21:53;;;;;;;6.33;2.00;;;;;;;;;;5072634;28;20312;-67
2022/09/01 02:24:19;;;;;;;5.68;1.90;;;;;;;;;;5071456;28;20255;-67
2022/09/01 02:26:47;;;;;;;5.20;2.20;;;;;;;;;;5071168;28;20027;-67
2022/09/01 02:29:19;;;;;;;3.38;1.70;;;;;;;;;;5072290;28;20020;-66
2022/09/01 02:31:46;;;;;;;3.17;1.80;;;;;;;;;;5071924;28;20044;-66
2022/09/01 02:34:12;;;;;;;2.55;1.73;;;;;;;;;;5071995;28;20020;-66
2022/09/01 02:36:43;;;;;;;5.07;1.95;;;;;;;;;;5071658;28;20099;-66
2022/09/01 02:39:08;;;;;;;;;;;;;;;;;;5072315;28;20089;-66
2022/09/01 02:41:33;;;;;;;3.95;1.70;;;;;;;;;;5071879;28;19908;-66
2022/09/01 02:44:01;;;;;;;5.72;1.35;;;;;;;;;;5071976;28;20028;-66
2022/09/01 02:46:27;;;;;;;2.30;1.58;;;;;;;;;;5071679;28;20024;-66
2022/09/01 02:48:53;;;;;;;6.00;1.50;;;;;;;;;;5071724;28;20485;-66
2022/09/01 02:51:19;;;;;;;9.20;1.70;;;;;;;;;;5071913;28;20100;-66
2022/09/01 02:53:48;;;;;;;3.95;1.85;;;;;;;;;;5071538;28;20013;-66
2022/09/01 02:56:15;;;;;;;6.95;1.85;;;;;;;;;;5071692;28;20054;-66
2022/09/01 02:58:45;;;;;;;3.50;1.55;;;;;;;;;;5071555;28;20035;-66
2022/09/01 03:01:13;;;;;;;2.55;1.58;;;;;;;;;;5071882;28;20031;-66
2022/09/01 03:03:38;;;;;;;3.85;1.58;;;;;;;;;;5071543;28;20027;-66
2022/09/01 03:06:05;;;;;;;4.47;1.50;;;;;;;;;;5071167;28;20028;-66
2022/09/01 03:08:33;;;;;;;2.92;1.50;;;;;;;;;;5071274;28;20106;-66
2022/09/01 03:11:00;;;;;;;2.53;1.48;;;;;;;;;;5071297;28;20354;-66
2022/09/01 03:13:27;;;;;;;2.38;1.38;;;;;;;;;;5071188;28;20074;-66
2022/09/01 03:15:53;;;;;;;2.67;1.73;;;;;;;;;;5070295;28;20035;-66
2022/09/01 03:18:18;;;;;;;3.40;1.30;;;;;;;;;;5071214;28;20020;-66
2022/09/01 03:20:45;;;;;;;2.45;1.65;;;;;;;;;;5071131;28;20040;-66
2022/09/01 03:23:13;;;;;;;2.45;1.40;;;;;;;;;;5071266;28;20081;-66
2022/09/01 03:25:39;;;;;;;1.80;1.15;;;;;;;;;;5070816;28;20028;-66
2022/09/01 03:28:04;;;;;;;3.72;1.67;;;;;;;;;;5070938;28;20030;-66
2022/09/01 03:30:30;;;;;;;3.95;1.40;;;;;;;;;;5071060;28;20024;-66
2022/09/01 03:32:56;;;;;;;1.75;1.25;;;;;;;;;;5070847;28;20024;-66
2022/09/01 03:35:21;;;;;;;2.95;1.55;;;;;;;;;;5070557;28;20020;-66
2022/09/01 03:37:46;;;;;;;2.70;1.25;;;;;;;;;;5070698;28;20019;-66
2022/09/01 03:40:12;;;;;;;5.00;1.37;;;;;;;;;;5070862;28;20417;-66
2022/09/01 03:42:38;;;;;;;3.03;1.42;;;;;;;;;;5070943;28;20032;-66
2022/09/01 03:45:07;;;;;;;4.63;1.80;;;;;;;;;;5070978;28;20024;-66
2022/09/01 03:47:38;;;;;;;1.80;1.20;;;;;;;;;;5070868;28;20028;-66
2022/09/01 03:50:03;;;;;;;3.00;1.90;;;;;;;;;;5070802;28;20032;-66
2022/09/01 03:52:29;;;;;;;2.28;1.48;;;;;;;;;;5070452;28;20020;-66
2022/09/01 03:54:54;;;;;;;5.85;1.50;;;;;;;;;;5070403;28;20028;-66
2022/09/01 03:57:19;;;;;;;5.82;1.30;;;;;;;;;;5069844;28;20031;-66
2022/09/01 03:59:44;;;;;;;4.32;1.60;;;;;;;;;;5070383;28;20020;-66
2022/09/01 04:02:10;;;;;;;2.57;1.43;;;;;;;;;;5068761;28;20765;-66
2022/09/01 04:04:35;;;;;;;3.25;1.67;;;;;;;;;;5069693;28;20254;-66
2022/09/01 04:07:00;;;;;;;4.70;1.80;;;;;;;;;;5069938;28;20028;-66
2022/09/01 04:09:25;;;;;;;2.55;1.50;;;;;;;;;;5070183;28;20023;-66
2022/09/01 04:11:51;;;;;;;3.67;1.58;;;;;;;;;;5070001;28;20039;-66
2022/09/01 04:14:17;;;;;;;4.13;1.70;;;;;;;;;;5070199;28;20095;-66
2022/09/01 04:19:29;;;;;;;2.45;1.67;;;;;;;;;;5070017;28;20028;-66
2022/09/01 04:21:55;;;;;;;5.20;1.77;;;;;;;;;;5070209;28;20578;-66
2022/09/01 04:24:23;;;;;;;3.28;1.40;;;;;;;;;;5069947;28;20519;-66
2022/09/01 04:26:48;;;;;;;6.30;1.63;;;;;;;;;;5072720;28;20103;-66
2022/09/01 04:29:17;;;;;;;4.03;1.50;;;;;;;;;;5074008;28;20346;-66
2022/09/01 04:31:42;;;;;;;3.15;1.45;;;;;;;;;;5074312;28;20107;-66
2022/09/01 04:34:13;;;;;;;3.40;1.40;;;;;;;;;;5074483;28;20451;-66
2022/09/01 04:36:40;;;;;;;6.13;2.08;;;;;;;;;;5074059;28;20346;-66
2022/09/01 04:39:07;;;;;;;4.30;1.92;;;;;;;;;;5074537;28;20044;-66
2022/09/01 04:41:33;;;;;;;7.40;2.15;;;;;;;;;;5074054;28;20086;-66
2022/09/01 04:44:03;;;;;;;2.72;1.40;;;;;;;;;;5074231;28;20016;-66
2022/09/01 04:46:30;;;;;;;5.53;2.15;;;;;;;;;;5073654;28;20024;-66
2022/09/01 04:48:56;;;;;;;3.50;2.00;;;;;;;;;;5073938;28;20120;-66
2022/09/01 04:51:23;;;;;;;4.85;1.60;;;;;;;;;;5073963;28;20087;-66
2022/09/01 04:53:48;;;;;;;3.38;1.67;;;;;;;;;;5074067;28;20016;-66
2022/09/01 04:56:14;;;;;;;3.33;1.70;;;;;;;;;;5073741;28;20703;-66
2022/09/01 04:58:39;;;;;;;9.10;1.75;;;;;;;;;;5073667;28;20774;-66
2022/09/01 05:01:18;;;;;;;4.55;1.98;;;;;;;;;;5073974;28;20069;-66
2022/09/01 05:03:44;;;;;;;5.30;1.80;;;;;;;;;;5073928;28;20103;-66
2022/09/01 05:06:17;;;;;;;6.30;1.67;;;;;;;;;;5055820;28;20040;-66
2022/09/01 05:08:44;;;;;;;3.33;1.75;;;;;;;;;;5073638;28;20020;-66
2022/09/01 05:11:10;;;;;;;4.95;2.20;;;;;;;;;;5073778;28;20025;-66
2022/09/01 05:13:37;;;;;;;6.18;2.95;;;;;;;;;;5073395;28;20028;-66
2022/09/01 05:16:05;;;;;;;5.07;1.90;;;;;;;;;;5073343;28;20023;-66
2022/09/01 05:18:30;;;;;;;5.32;1.95;;;;;;;;;;5073271;28;20029;-66
2022/09/01 05:20:56;;;;;;;4.93;1.83;;;;;;;;;;5073685;28;20154;-66
2022/09/01 05:23:22;;;;;;;10.35;2.17;;;;;;;;;;5073279;28;20388;-66
2022/09/01 05:25:50;;;;;;;3.92;1.67;;;;;;;;;;5073222;28;20121;-66
2022/09/01 05:28:17;;;;;;;2.80;1.83;;;;;;;;;;5073226;28;20103;-66
2022/09/01 05:30:44;;;;;;;2.28;1.40;;;;;;;;;;5073190;28;20021;-66
2022/09/01 05:33:15;;;;;;;5.00;2.03;;;;;;;;;;5073348;28;20036;-66
2022/09/01 05:35:43;;;;;;;3.05;1.73;;;;;;;;;;5072984;28;20017;-66
2022/09/01 05:38:11;;;;;;;4.53;1.88;;;;;;;;;;5072066;28;20020;-66
2022/09/01 05:40:39;;;;;;;6.32;2.03;;;;;;;;;;5073061;28;20463;-66
2022/09/01 05:43:05;;;;;;;3.58;1.88;;;;;;;;;;5054986;28;20546;-66
2022/09/01 05:45:30;;;;;;;3.38;1.52;;;;;;;;;;5072758;28;20136;-66
2022/09/01 05:47:56;;;;;;;10.18;1.67;;;;;;;;;;5072959;28;20067;-66
2022/09/01 05:50:22;;;;;;;6.57;1.90;;;;;;;;;;5072762;28;20059;-66
2022/09/01 05:52:47;;;;;;;3.40;1.50;;;;;;;;;;5072881;28;20626;-66
2022/09/01 05:55:14;;;;;;;7.65;1.60;;;;;;;;;;5072639;28;20247;-66
2022/09/01 05:57:39;;;;;;;5.72;1.50;;;;;;;;;;5072476;28;20029;-66
2022/09/01 06:00:10;;;;;;;3.97;1.65;;;;;;;;;;5072720;28;20102;-66
2022/09/01 06:02:36;;;;;;;1.88;1.35;;;;;;;;;;5072695;28;20028;-67
2022/09/01 06:05:01;;;;;;;6.45;2.20;;;;;;;;;;5072890;28;20012;-67
2022/09/01 06:07:27;;;;;;;4.25;1.48;;;;;;;;;;5072764;28;20107;-67
2022/09/01 06:09:52;;;;;;;4.97;1.50;;;;;;;;;;5072885;28;20024;-67
2022/09/01 06:12:19;;;;;;;2.80;1.17;;;;;;;;;;5072622;28;20070;-67
2022/09/01 06:14:47;;;;;;;3.92;1.30;;;;;;;;;;5072581;28;20554;-67
2022/09/01 06:17:15;;;;;;;4.35;1.38;;;;;;;;;;5072302;28;20619;-67
2022/09/01 06:19:41;;;;;;;4.60;1.65;;;;;;;;;;5072456;28;20025;-67
2022/09/01 06:22:09;;;;;;;4.38;1.40;;;;;;;;;;5072356;28;20032;-67
2022/09/01 06:24:35;;;;;;;3.38;1.33;;;;;;;;;;5072328;28;20378;-67
2022/09/01 06:27:00;;;;;;;2.00;1.13;;;;;;;;;;5072042;28;20021;-67
2022/09/01 06:29:26;;;;;;;2.47;1.52;;;;;;;;;;5071933;28;20421;-67
2022/09/01 06:31:51;;;;;;;8.43;1.73;;;;;;;;;;5072333;28;20016;-67
2022/09/01 06:34:17;;;;;;;2.90;1.35;;;;;;;;;;5072138;28;20027;-66
2022/09/01 06:36:43;;;;;;;2.58;1.20;;;;;;;;;;5071929;28;20028;-66
2022/09/01 06:39:16;;;;;;;4.03;1.30;;;;;;;;;;5072186;28;20100;-66
2022/09/01 06:41:47;;;;;;;2.50;1.08;;;;;;;;;;5072051;28;20020;-66
2022/09/01 06:44:13;;;;;;;4.67;1.40;;;;;;;;;;5072116;28;20052;-66
2022/09/01 06:46:38;;;;;;;4.55;1.20;;;;;;;;;;5071495;28;20499;-66
2022/09/01 06:49:03;;;;;;;5.35;2.25;;;;;;;;;;5071711;28;20028;-66
2022/09/01 06:51:29;;;;;;;9.90;1.57;;;;;;;;;;5071948;28;20024;-66
2022/09/01 06:53:58;;;;;;;2.38;0.93;;;;;;;;;;5072181;28;20366;-66
2022/09/01 06:56:27;;;;;;;1.30;0.82;;;;;;;;;;5071534;28;20016;-66
2022/09/01 06:58:52;;;;;;;6.53;1.30;;;;;;;;;;5071808;28;20024;-67
2022/09/01 07:01:19;;;;;;;1.63;1.05;;;;;;;;;;5071598;28;20492;-66
2022/09/01 07:03:46;;;;;;;5.53;0.98;;;;;;;;;;5071790;28;20021;-66
2022/09/01 07:06:12;;;;;;;7.63;1.15;;;;;;;;;;5071193;28;20465;-67
2022/09/01 07:08:38;;;;;;;3.33;1.00;;;;;;;;;;5071448;28;20039;-67
2022/09/01 07:11:05;;;;;;;2.10;1.13;;;;;;;;;;5071405;28;20099;-67
2022/09/01 07:13:33;;;;;;;5.10;1.20;;;;;;;;;;5071322;28;20029;-67
2022/09/01 07:15:58;;;;;;;2.75;1.20;;;;;;;;;;5071031;28;20055;-67
2022/09/01 07:18:25;;;;;;;1.73;1.10;;;;;;;;;;5071253;28;20495;-66
2022/09/01 07:20:51;;;;;;;3.22;0.80;;;;;;;;;;5071466;28;20051;-67
2022/09/01 07:23:18;;;;;;;3.95;1.05;;;;;;;;;;5071213;28;20023;-67
2022/09/01 07:25:44;;;;;;;2.55;1.00;;;;;;;;;;5070826;28;20032;-64
2022/09/01 07:28:12;;;;;;;2.55;1.27;;;;;;;;;;5071283;28;20488;-67
2022/09/01 07:30:42;;;;;;;4.95;1.10;;;;;;;;;;5070880;28;20035;-65
2022/09/01 07:33:10;;;;;;;7.93;1.27;;;;;;;;;;5071026;28;20107;-67
2022/09/01 07:35:36;;;;;;;1.75;1.05;;;;;;;;;;5070692;28;20028;-65
2022/09/01 07:38:03;;;;;;;1.95;0.73;;;;;;;;;;5071041;28;20070;-68
2022/09/01 07:40:28;;;;;;;4.20;1.02;;;;;;;;;;5071312;28;20024;-65
2022/09/01 07:42:54;;;;;;;3.60;0.77;;;;;;;;;;5071356;28;20112;-66
2022/09/01 07:45:19;;;;;;;6.32;1.13;;;;;;;;;;5070740;28;20036;-65
2022/09/01 07:47:44;;;;;;;2.03;0.60;;;;;;;;;;5070659;28;20029;-68
2022/09/01 07:50:11;;;;;;;3.00;0.93;;;;;;;;;;5070812;28;20028;-68
2022/09/01 07:52:42;;;;;;;3.80;0.80;;;;;;;;;;5070635;28;20051;-66
2022/09/01 07:55:09;;;;;;;2.80;1.00;;;;;;;;;;5070567;28;20008;-65
2022/09/01 07:57:35;;;;;;;4.55;1.00;;;;;;;;;;5070165;28;20411;-66
2022/09/01 08:00:00;;;;;;;1.20;0.88;;;;;;;;;;5070035;28;20020;-67
2022/09/01 08:02:26;;;;;;;9.45;1.20;;;;;;;;;;5070563;28;20036;-67
2022/09/01 08:04:51;;;;;;;4.85;1.17;;;;;;;;;;5070550;28;20023;-67
2022/09/01 08:07:17;;;;;;;1.50;0.90;;;;;;;;;;5070448;28;20021;-66
2022/09/01 08:09:42;;;;;;;2.87;1.00;;;;;;;;;;5070452;28;20031;-67
2022/09/01 08:12:07;;;;;;;4.57;1.07;;;;;;;;;;5070547;28;20024;-67
2022/09/01 08:14:33;;;;;;;1.45;0.77;;;;;;;;;;5070279;28;20258;-66
2022/09/01 08:16:58;;;;;;;3.38;0.93;;;;;;;;;;5070354;28;20023;-67
2022/09/01 08:19:23;;;;;;;4.05;1.48;;;;;;;;;;5070374;28;20477;-67
2022/09/01 08:21:48;;;;;;;2.20;0.90;;;;;;;;;;5070585;28;20032;-67
2022/09/01 08:24:14;;;;;;;1.83;1.00;;;;;;;;;;5070677;28;20028;-67
2022/09/01 08:26:40;;;;;;;5.90;0.90;;;;;;;;;;5070454;28;20247;-67
2022/09/01 08:29:05;;;;;;;1.88;0.70;;;;;;;;;;5070322;28;20484;-67
2022/09/01 08:31:31;;;;;;;3.53;1.03;;;;;;;;;;5070492;28;20020;-66
2022/09/01 08:33:57;;;;;;;4.28;0.70;;;;;;;;;;5070214;28;20024;-66
2022/09/01 08:36:22;;;;;;;1.85;0.90;;;;;;;;;;5070184;28;20638;-66
2022/09/01 08:38:47;;;;;;;1.58;0.80;;;;;;;;;;5070515;28;20013;-66
2022/09/01 08:41:23;;;;;;;1.00;0.53;;;;;;;;;;5070493;28;20021;-66
2022/09/01 08:43:59;;;;;;;4.20;0.93;;;;;;;;;;5070406;28;20251;-66
2022/09/01 08:46:30;;;;;;;1.38;0.88;;;;;;;;;;5069548;28;20020;-66
2022/09/01 08:49:00;;;;;;;1.90;0.80;;;;;;;;;;5070224;28;20024;-67
2022/09/01 08:51:31;;;;;;;2.47;0.82;;;;;;;;;;5069887;28;20029;-68
2022/09/01 08:53:59;;;;;;;5.32;1.10;;;;;;;;;;5070100;28;20020;-67
2022/09/01 08:56:25;;;;;;;4.22;0.70;;;;;;;;;;5069679;28;20431;-67
2022/09/01 08:58:50;;;;;;;2.60;0.90;;;;;;;;;;5069972;28;20521;-67
2022/09/01 09:01:29;;;;;;;3.43;0.73;;;;;;;;;;5070192;28;20096;-68
2022/09/01 09:03:55;;;;;;;2.25;0.88;;;;;;;;;;5070255;28;20039;-67
2022/09/01 09:06:28;;;;;;;3.20;0.63;;;;;;;;;;5069813;28;20027;-67
2022/09/01 09:09:06;;;;;;;1.30;0.63;;;;;;;;;;5070237;28;20081;-67
2022/09/01 09:11:50;;;;;;;3.75;0.88;;;;;;;;;;5070799;28;20013;-67
2022/09/01 09:14:25;;;;;;;2.25;0.80;;;;;;;;;;5073838;28;20021;-67
2022/09/01 09:16:53;;;;;;;7.68;1.10;;;;;;;;;;5073454;28;20081;-67
2022/09/01 09:19:18;;;;;;;1.42;0.60;;;;;;;;;;5073695;28;20031;-67
2022/09/01 09:21:45;;;;;;;0.80;0.50;;;;;;;;;;5073724;28;20024;-67
2022/09/01 09:24:19;;;;;;;2.00;0.80;;;;;;;;;;5073740;28;20472;-67
2022/09/01 09:26:48;;;;;;;2.50;0.70;;;;;;;;;;5073333;28;20024;-67
2022/09/01 09:29:13;;;;;;;1.92;1.00;;;;;;;;;;5073304;28;20448;-66
2022/09/01 09:31:47;;;;;;;4.53;0.90;;;;;;;;;;5073432;28;20053;-66
2022/09/01 09:34:17;;;;;;;5.57;0.80;;;;;;;;;;5073410;28;20024;-67
2022/09/01 09:36:45;;;;;;;2.47;0.95;;;;;;;;;;5073215;28;20105;-67
2022/09/01 09:39:16;;;;;;;2.28;0.80;;;;;;;;;;5073207;28;20044;-67
2022/09/01 09:41:42;;;;;;;1.33;0.70;;;;;;;;;;5073125;28;20077;-67
2022/09/01 09:44:18;;;;;;;3.08;0.60;;;;;;;;;;5073082;28;20020;-67
2022/09/01 09:46:44;;;;;;;1.05;0.60;;;;;;;;;;5072717;28;20029;-67
2022/09/01 09:49:18;;;;;;;1.00;0.70;;;;;;;;;;5072921;28;20024;-67
2022/09/01 09:51:47;;;;;;;5.65;0.95;;;;;;;;;;5073067;28;20016;-67
2022/09/01 09:54:32;;;;;;;3.90;1.02;;;;;;;;;;5073367;28;20473;-67
2022/09/01 09:57:06;;;;;;;3.90;1.00;;;;;;;;;;5071548;28;20040;-67
2022/09/01 09:59:43;;;;;;;2.30;0.82;;;;;;;;;;5073139;28;20134;-67
2022/09/01 10:02:20;;;;;;;5.57;0.85;;;;;;;;;;5072879;28;20023;-67
2022/09/01 10:04:45;;;;;;;2.05;0.65;;;;;;;;;;5072713;28;20025;-67
2022/09/01 10:07:22;;;;;;;2.97;1.00;;;;;;;;;;5072576;28;20020;-67
2022/09/01 10:09:48;;;;;;;2.53;0.80;;;;;;;;;;5072450;28;20506;-67
2022/09/01 10:12:14;;;;;;;3.10;0.73;;;;;;;;;;5072890;28;20080;-68
2022/09/01 10:14:42;;;;;;;7.25;1.02;;;;;;;;;;5072565;28;20048;-67
2022/09/01 10:17:09;;;;;;;2.90;1.13;;;;;;;;;;5072178;28;20078;-67
2022/09/01 10:19:39;;;;;;;2.03;0.98;;;;;;;;;;5072490;28;20135;-66
2022/09/01 10:22:04;;;;;;;1.05;0.70;;;;;;;;;;5072317;28;20388;-66
2022/09/01 10:24:31;;;;;;;0.93;0.70;;;;;;;;;;5071802;28;20020;-67
2022/09/01 10:26:59;;;;;;;2.13;0.80;;;;;;;;;;5071910;28;20025;-66
2022/09/01 10:29:24;;;;;;;3.83;0.90;;;;;;;;;;5072420;28;20028;-67
2022/09/01 10:31:50;;;;;;;1.57;0.73;;;;;;;;;;5072040;28;20090;-66
2022/09/01 10:34:16;;;;;;;2.70;0.88;;;;;;;;;;5072299;28;20009;-66
2022/09/01 10:36:43;;;;;;;2.50;0.98;;;;;;;;;;5071928;28;20023;-66
2022/09/01 10:39:12;;;;;;;5.47;1.00;;;;;;;;;;5072293;28;20016;-66
2022/09/01 10:41:52;;;;;;;3.10;0.82;;;;;;;;;;5072377;28;20020;-66
2022/09/01 10:44:39;;;;;;;0.80;0.55;;;;;;;;;;5072279;28;20099;-67
2022/09/01 10:47:28;;;;;;;2.50;0.82;;;;;;;;;;5071460;28;20052;-67
2022/09/01 10:49:53;;;;;;;2.45;1.02;;;;;;;;;;5071798;28;20020;-67
2022/09/01 10:52:37;;;;;;;3.78;0.80;;;;;;;;;;5071803;28;20020;-67
2022/09/01 10:55:05;;;;;;;3.22;1.17;;;;;;;;;;5071816;28;20040;-67
2022/09/01 10:57:39;;;;;;;8.60;1.30;;;;;;;;;;5071365;28;20021;-67
2022/09/01 11:00:33;;;;;;;1.33;1.00;;;;;;;;;;5071695;28;20461;-67
2022/09/01 11:03:11;;;;;;;2.30;0.82;;;;;;;;;;5071455;28;20032;-67
2022/09/01 11:05:56;;;;;;;3.47;1.20;;;;;;;;;;5071502;28;20024;-67
2022/09/01 11:08:23;;;;;;;2.85;1.15;;;;;;;;;;5071362;28;20485;-67
2022/09/01 11:10:57;;;;;;;3.80;0.90;;;;;;;;;;5071173;28;20049;-67
2022/09/01 11:13:36;;;;;;;4.93;1.17;;;;;;;;;;5071527;28;20056;-67
2022/09/01 11:16:20;;;;;;;3.63;0.80;;;;;;;;;;5071014;28;20023;-67
2022/09/01 11:18:46;;;;;;;1.58;0.80;;;;;;;;;;5071209;28;20066;-68
2022/09/01 11:21:16;;;;;;;1.98;0.90;;;;;;;;;;5071296;28;20020;-67
2022/09/01 11:23:42;;;;;;;1.15;0.77;;;;;;;;;;5071250;28;20023;-68
2022/09/01 11:26:36;;;;;;;1.80;0.90;;;;;;;;;;5071412;28;20024;-68
2022/09/01 11:29:02;;;;;;;4.18;0.85;;;;;;;;;;5057580;28;20036;-66
2022/09/01 11:31:45;;;;;;;1.88;1.20;;;;;;;;;;5071336;28;20019;-66
2022/09/01 11:34:12;;;;;;;1.95;1.10;;;;;;;;;;5071199;28;20017;-66
2022/09/01 11:36:46;;;;;;;2.50;0.95;;;;;;;;;;5069841;28;20619;-66
2022/09/01 11:39:17;;;;;;;1.65;1.10;;;;;;;;;;5070895;28;20055;-66
2022/09/01 11:41:54;;;;;;;2.53;1.27;;;;;;;;;;5070897;28;20028;-66
2022/09/01 11:44:22;;;;;;;3.22;1.10;;;;;;;;;;5070981;28;20017;-66
2022/09/01 11:46:47;;;;;;;4.38;1.10;;;;;;;;;;5070526;28;20052;-66
2022/09/01 11:49:35;;;;;;;2.90;1.20;;;;;;;;;;5070785;28;20113;-66
2022/09/01 11:52:01;;;;;;;2.97;1.40;;;;;;;;;;5062226;28;20270;-66
2022/09/01 11:54:28;;;;;;;3.30;1.35;;;;;;;;;;5070761;28;20017;-67
2022/09/01 11:56:54;;;;;;;3.63;1.10;;;;;;;;;;5070158;28;20154;-66
2022/09/01 11:59:30;;;;;;;5.43;1.50;;;;;;;;;;5070813;28;20099;-67
2022/09/01 12:01:56;;;;;;;0.77;0.55;;;;;;;;;;5070546;28;20039;-66
2022/09/01 12:04:23;;;;;;;3.35;1.77;;;;;;;;;;5070595;28;20021;-66
2022/09/01 12:06:53;;;;;;;2.20;1.20;;;;;;;;;;5070031;28;20021;-66
2022/09/01 12:09:19;;;;;;;1.77;1.20;;;;;;;;;;5070263;28;20025;-66
2022/09/01 12:11:44;;;;;;;2.00;1.27;;;;;;;;;;5070591;28;20028;-66
2022/09/01 12:14:10;;;;;;;4.07;1.10;;;;;;;;;;5070726;28;20262;-66
2022/09/01 12:16:36;;;;;;;2.20;1.10;;;;;;;;;;5070166;28;20024;-66
2022/09/01 12:19:03;;;;;;;4.18;1.20;;;;;;;;;;5070315;28;20028;-66
2022/09/01 12:21:28;;;;;;;5.40;1.58;;;;;;;;;;5070124;28;20020;-66
2022/09/01 12:24:08;;;;;;;7.60;1.10;;;;;;;;;;5070257;28;20377;-67
2022/09/01 12:26:33;;;;;;;3.40;1.30;;;;;;;;;;5069996;28;20255;-67
2022/09/01 12:28:58;;;;;;;8.38;1.70;;;;;;;;;;5070142;28;20495;-67
2022/09/01 12:31:25;;;;;;;1.90;1.25;;;;;;;;;;5070265;28;20024;-67
2022/09/01 12:33:51;;;;;;;1.80;1.33;;;;;;;;;;5070017;28;20012;-67
2022/09/01 12:36:28;;;;;;;5.15;2.15;;;;;;;;;;5069960;28;20040;-67
2022/09/01 12:39:13;;;;;;;6.38;2.65;;;;;;;;;;5069882;28;20380;-67
2022/09/01 12:41:38;;;;;;;3.78;1.38;;;;;;;;;;5069494;28;20024;-67
2022/09/01 12:44:22;;;;;;;6.73;1.33;;;;;;;;;;5070128;28;20027;-67
2022/09/01 12:46:47;;;;;;;3.72;1.48;;;;;;;;;;5070915;28;20386;-67
2022/09/01 12:49:23;;;;;;;2.63;1.40;;;;;;;;;;5074056;28;20103;-67
2022/09/01 12:51:49;;;;;;;3.28;1.50;;;;;;;;;;5073777;28;20045;-67
2022/09/01 12:54:15;;;;;;;6.65;1.50;;;;;;;;;;5074130;28;20071;-67
2022/09/01 12:56:46;;;;;;;3.88;1.77;;;;;;;;;;5073501;28;20028;-67
2022/09/01 12:59:20;;;;;;;3.08;1.45;;;;;;;;;;5074324;28;20111;-67
2022/09/01 13:01:45;;;;;;;2.67;1.60;;;;;;;;;;5073933;28;20021;-67
2022/09/01 13:04:13;;;;;;;2.20;1.42;;;;;;;;;;5073881;28;20016;-67
2022/09/01 13:06:38;;;;;;;3.17;1.85;;;;;;;;;;5073367;28;20013;-67
2022/09/01 13:09:03;;;;;;;3.10;1.15;;;;;;;;;;5073392;28;20028;-67
2022/09/01 13:11:28;;;;;;;2.60;1.50;;;;;;;;;;5073745;28;20131;-67
2022/09/01 13:13:53;;;;;;;2.97;1.67;;;;;;;;;;5073502;28;20342;-67
2022/09/01 13:16:19;;;;;;;2.67;1.63;;;;;;;;;;5073299;28;20255;-67
2022/09/01 13:18:44;;;;;;;7.33;1.63;;;;;;;;;;5073431;28;20028;-67
2022/09/01 13:21:11;;;;;;;5.57;1.67;;;;;;;;;;5073403;28;20114;-67
2022/09/01 13:23:36;;;;;;;2.78;1.60;;;;;;;;;;5073407;28;20262;-67
2022/09/01 13:26:01;;;;;;;4.67;1.70;;;;;;;;;;5073052;28;20093;-67
2022/09/01 13:28:26;;;;;;;1.67;1.05;;;;;;;;;;5073301;28;20251;-67
2022/09/01 13:30:55;;;;;;;2.42;1.65;;;;;;;;;;5073226;28;20071;-67
2022/09/01 13:33:20;;;;;;;2.50;1.70;;;;;;;;;;5073218;28;20025;-67
2022/09/01 13:35:46;;;;;;;2.88;1.80;;;;;;;;;;5072704;28;20026;-67
2022/09/01 13:38:14;;;;;;;2.08;1.05;;;;;;;;;;5073021;28;20016;-67
2022/09/01 13:40:40;;;;;;;3.35;1.58;;;;;;;;;;5073021;28;20013;-67
2022/09/01 13:43:05;;;;;;;4.10;1.75;;;;;;;;;;5073226;28;20378;-67
2022/09/01 13:45:30;;;;;;;1.98;1.75;;;;;;;;;;5072929;28;20100;-67
2022/09/01 13:47:56;;;;;;;4.67;1.33;;;;;;;;;;5072812;28;20032;-67
2022/09/01 13:50:22;;;;;;;7.53;1.80;;;;;;;;;;5072828;28;20020;-67
2022/09/01 13:52:49;;;;;;;3.00;1.70;;;;;;;;;;5054623;28;20081;-67
2022/09/01 13:55:17;;;;;;;2.40;1.70;;;;;;;;;;5072659;28;20024;-68
2022/09/01 13:57:42;;;;;;;11.05;1.80;;;;;;;;;;5072159;28;20473;-67
2022/09/01 14:00:09;;;;;;;5.28;1.73;;;;;;;;;;5072353;28;20024;-67
2022/09/01 14:02:36;;;;;;;7.43;1.80;;;;;;;;;;5072689;28;20091;-68
2022/09/01 14:05:01;;;;;;;2.40;1.40;;;;;;;;;;5072489;28;20028;-68
2022/09/01 14:07:27;;;;;;;3.25;1.80;;;;;;;;;;5072447;28;20026;-68
2022/09/01 14:09:53;;;;;;;4.32;1.75;;;;;;;;;;5072435;28;20611;-68
2022/09/01 14:12:19;;;;;;;2.67;1.65;;;;;;;;;;5072484;28;20105;-67
2022/09/01 14:14:44;;;;;;;3.63;1.42;;;;;;;;;;5072445;28;20629;-67
2022/09/01 14:17:09;;;;;;;4.03;1.57;;;;;;;;;;5072357;28;20028;-68
2022/09/01 14:19:35;;;;;;;4.40;2.27;;;;;;;;;;5072485;28;20839;-67
2022/09/01 14:22:04;;;;;;;2.15;1.38;;;;;;;;;;5072499;28;20673;-67
2022/09/01 14:24:30;;;;;;;6.00;1.75;;;;;;;;;;5072616;28;20085;-67
2022/09/01 14:26:55;;;;;;;2.67;1.83;;;;;;;;;;5072459;28;20694;-67
2022/09/01 14:29:20;;;;;;;4.57;1.93;;;;;;;;;;5072639;28;20115;-68
2022/09/01 14:31:45;;;;;;;1.45;1.30;;;;;;;;;;5072098;28;20560;-67
2022/09/01 14:34:11;;;;;;;4.57;2.10;;;;;;;;;;5072328;28;20445;-67
2022/09/01 14:36:37;;;;;;;1.85;1.48;;;;;;;;;;5071869;28;20074;-67
2022/09/01 14:39:03;;;;;;;4.85;1.95;;;;;;;;;;5072192;28;20043;-68
2022/09/01 14:41:29;;;;;;;2.45;1.08;;;;;;;;;;5072221;28;20020;-68
2022/09/01 14:43:56;;;;;;;11.48;2.42;;;;;;;;;;5071874;28;20028;-67
2022/09/01 14:46:22;;;;;;;2.25;1.70;;;;;;;;;;5071897;28;20023;-67
2022/09/01 14:48:47;;;;;;;6.50;2.03;;;;;;;;;;5071682;28;20024;-67
2022/09/01 14:51:26;;;;;;;3.10;1.60;;;;;;;;;;5071901;28;20050;-67
2022/09/01 14:53:52;;;;;;;3.78;1.67;;;;;;;;;;5071893;28;20027;-67